Flight Number: EUR2150 Duration: 1:30
Departure: Warsaw Okecie (EPWA) at 21:10 Distance: 420 Nm
Arrival: Munich Int'l (EDDM) at 22:40 Equipment: CRJ700

Weather Information
Warszawa-Okecie, Poland (EPWA) 52-10N 020-58E 107M Feb 24, 2018 - 01:00 AM EST / 2018.02.24 0600 UTC
Wind: from the N (350 degrees) at 9 MPH (8 KT):0
Visibility: greater than 7 mile(s):0
Sky conditions: mostly cloudy Weather: light snow Temperature: 21 F (-6 C)
Windchill: 10 F (-12 C):1 Dew Point: 19 F (-7 C) Relative Humidity: 92% Pressure (altimeter): 30.12 in. Hg (1020 hPa)
ob: EPWA 240600Z 35008KT 9999 -SN SCT009 BKN041 M06/M07 Q1020 R33/450295 TEMPO BKN009 cycle: 6
Sunrise: 05:35 Sunset: 16:02 (UTC)

Munchen, Germany (EDDM) 48-21N 011-47E Feb 24, 2018 - 12:50 AM EST / 2018.02.24 0550 UTC
Wind: from the ENE (070 degrees) at 12 MPH (10 KT):0
Visibility: greater than 7 mile(s):0
Sky conditions: partly cloudy Temperature: 23 F (-5 C)
Windchill: 12 F (-11 C):1 Dew Point: 17 F (-8 C) Relative Humidity: 79% Pressure (altimeter): 30.03 in. Hg (1017 hPa)
ob: EDDM 240550Z 07010KT 9999 SCT018 M05/M08 Q1017 NOSIG cycle: 6
Sunrise: 06:06 Sunset: 16:45 (UTC)

TAF:2018/02/24 06:27 TAF EDDM 240500Z 2406/2512 07012KT 9999 SCT020 BECMG 2407/2409 07015G25KT BECMG 2418/2420 07012KT

Previous Pireps for this route
Date Aircraft Flight time Fuel used Landing rate On time
2012-09-14MD-8101.4610209-472Yes
2013-03-09MD-811.2082150No
2015-02-12B73701.469559-85Charter
2015-04-07MD-8101.156709-234Yes
2015-04-10CRJ7001.1948260No
2015-04-22MD-8101.259980-235Yes
2015-04-25MD-811.1798940Yes
2015-05-20CRJ7001.2338850Yes
2016-08-25A32102.0011534-237Charter
(pireps marked green are flown by you)

Route map